DLH73U EDDF-LFPG
Flight info
| Callsign | DLH73U |
|---|---|
| Flight time | N/A |
| Altitude | 24000 |
| Route | SOBRA2L/18 SOBRA Y180 DIK UN857 TOLVU/N0401F230 DCT RAPOR DCT VEDUS |
| Aircraft | A21N/M-SDE2E3FGHIRWXY/LB1 |
Departure
| Time | 2026-05-04 20:40 |
|---|---|
| Airport | Frankfurt Main Airport (EDDF) |
Arrival
| Time | N/A |
|---|---|
| Airport | Charles de Gaulle International Airport (LFPG) |
| Time | Latitude | Longitude | Altitude | Speed | Heading |
|---|---|---|---|---|---|
| 2026-05-04 20:13 | 50.04825 | 8.58839 | 371 ft | 0 kts | 339° |
| 2026-05-04 20:31 | 50.04761 | 8.58877 | 374 ft | 0 kts | 339° |
| 2026-05-04 20:38 | 50.04765 | 8.58874 | 373 ft | 4 kts | 329° |
| 2026-05-04 20:38 | 50.04744 | 8.58808 | 373 ft | 10 kts | 232° |
| 2026-05-04 20:38 | 50.04672 | 8.58765 | 375 ft | 13 kts | 187° |
| 2026-05-04 20:38 | 50.04581 | 8.58716 | 376 ft | 15 kts | 221° |
| 2026-05-04 20:39 | 50.04497 | 8.58598 | 376 ft | 17 kts | 228° |
| 2026-05-04 20:39 | 50.04451 | 8.58427 | 375 ft | 18 kts | 251° |
| 2026-05-04 20:39 | 50.04341 | 8.57928 | 369 ft | 83 kts | 251° |
| 2026-05-04 20:39 | 50.04085 | 8.56773 | 369 ft | 141 kts | 250° |
| 2026-05-04 20:40 | 50.03684 | 8.55159 | 468 ft | 172 kts | 248° |
| 2026-05-04 20:40 | 50.03248 | 8.53413 | 995 ft | 174 kts | 249° |
| 2026-05-04 20:40 | 50.02811 | 8.51639 | 1495 ft | 178 kts | 250° |
| 2026-05-04 20:40 | 50.02104 | 8.50033 | 1877 ft | 189 kts | 217° |
| 2026-05-04 20:41 | 50.00833 | 8.49352 | 2311 ft | 202 kts | 188° |
| 2026-05-04 20:41 | 49.99431 | 8.48940 | 2857 ft | 213 kts | 199° |
| 2026-05-04 20:41 | 49.97992 | 8.48143 | 3374 ft | 226 kts | 200° |
| 2026-05-04 20:41 | 49.96493 | 8.47308 | 4046 ft | 229 kts | 200° |
| 2026-05-04 20:42 | 49.94983 | 8.46471 | 4649 ft | 231 kts | 199° |
| 2026-05-04 20:42 | 49.93484 | 8.45580 | 4908 ft | 231 kts | 206° |
| 2026-05-04 20:42 | 49.92141 | 8.44056 | 4976 ft | 254 kts | 222° |
| 2026-05-04 20:42 | 49.90840 | 8.42087 | 5003 ft | 263 kts | 224° |
| 2026-05-04 20:43 | 49.89538 | 8.40095 | 4989 ft | 263 kts | 224° |
| 2026-05-04 20:43 | 49.88227 | 8.38108 | 4980 ft | 262 kts | 223° |
| 2026-05-04 20:43 | 49.86919 | 8.36137 | 4971 ft | 262 kts | 223° |
| 2026-05-04 20:43 | 49.85608 | 8.34172 | 4969 ft | 262 kts | 223° |
| 2026-05-04 20:44 | 49.84312 | 8.32237 | 4969 ft | 262 kts | 223° |
| 2026-05-04 20:44 | 49.82982 | 8.30259 | 4968 ft | 262 kts | 223° |
| 2026-05-04 20:44 | 49.81683 | 8.28328 | 4966 ft | 262 kts | 223° |
| 2026-05-04 20:44 | 49.80390 | 8.26342 | 4965 ft | 262 kts | 228° |
| 2026-05-04 20:45 | 49.79447 | 8.23932 | 4961 ft | 264 kts | 249° |
| 2026-05-04 20:45 | 49.79189 | 8.21118 | 4963 ft | 267 kts | 272° |
| 2026-05-04 20:45 | 49.79543 | 8.18292 | 4974 ft | 269 kts | 283° |
| 2026-05-04 20:45 | 49.80025 | 8.15497 | 4979 ft | 267 kts | 282° |
| 2026-05-04 20:46 | 49.80501 | 8.12682 | 4975 ft | 267 kts | 282° |
| 2026-05-04 20:46 | 49.80959 | 8.09900 | 4976 ft | 267 kts | 282° |
| 2026-05-04 20:46 | 49.81407 | 8.07149 | 4973 ft | 267 kts | 282° |
| 2026-05-04 20:46 | 49.81852 | 8.04363 | 5167 ft | 269 kts | 281° |
| 2026-05-04 20:47 | 49.82303 | 8.01541 | 5721 ft | 270 kts | 281° |
| 2026-05-04 20:47 | 49.82753 | 7.98709 | 6305 ft | 272 kts | 280° |
| 2026-05-04 20:47 | 49.83204 | 7.95856 | 6834 ft | 273 kts | 280° |
| 2026-05-04 20:47 | 49.83653 | 7.92988 | 7374 ft | 275 kts | 280° |
| 2026-05-04 20:48 | 49.84101 | 7.90107 | 7920 ft | 276 kts | 280° |
| 2026-05-04 20:48 | 49.84551 | 7.87200 | 8472 ft | 278 kts | 280° |
| 2026-05-04 20:48 | 49.85007 | 7.84274 | 9030 ft | 280 kts | 280° |
| 2026-05-04 20:48 | 49.85464 | 7.81331 | 9576 ft | 282 kts | 280° |
| 2026-05-04 20:49 | 49.85930 | 7.78367 | 10079 ft | 285 kts | 280° |
| 2026-05-04 20:49 | 49.86408 | 7.75329 | 10338 ft | 296 kts | 280° |
| 2026-05-04 20:49 | 49.86743 | 7.73210 | 10466 ft | 304 kts | 280° |
| 2026-05-04 20:49 | 49.87414 | 7.68897 | 10676 ft | 317 kts | 280° |
| 2026-05-04 20:50 | 49.87937 | 7.65518 | 10792 ft | 327 kts | 280° |
| 2026-05-04 20:50 | 49.88472 | 7.62056 | 10906 ft | 335 kts | 280° |
| 2026-05-04 20:50 | 49.89024 | 7.58514 | 11027 ft | 340 kts | 280° |
| 2026-05-04 20:50 | 49.89570 | 7.55007 | 11631 ft | 328 kts | 280° |
| 2026-05-04 20:51 | 49.90091 | 7.51620 | 12302 ft | 318 kts | 280° |
| 2026-05-04 20:51 | 49.90595 | 7.48326 | 13000 ft | 309 kts | 279° |
| 2026-05-04 20:51 | 49.91084 | 7.45117 | 13664 ft | 304 kts | 279° |
| 2026-05-04 20:51 | 49.91568 | 7.41926 | 14229 ft | 306 kts | 279° |
| 2026-05-04 20:52 | 49.92065 | 7.38632 | 14692 ft | 323 kts | 279° |
| 2026-05-04 20:52 | 49.92592 | 7.35135 | 15008 ft | 343 kts | 279° |
| 2026-05-04 20:52 | 49.93151 | 7.31426 | 15280 ft | 363 kts | 280° |
| 2026-05-04 20:52 | 49.93742 | 7.27518 | 15542 ft | 381 kts | 280° |
| 2026-05-04 20:53 | 49.94360 | 7.23434 | 15762 ft | 396 kts | 280° |
| 2026-05-04 20:53 | 49.94997 | 7.19221 | 16130 ft | 405 kts | 281° |
| 2026-05-04 20:53 | 49.95643 | 7.14943 | 16642 ft | 409 kts | 281° |
| 2026-05-04 20:53 | 49.96294 | 7.10628 | 17179 ft | 412 kts | 281° |
| 2026-05-04 20:54 | 49.96945 | 7.06269 | 17706 ft | 415 kts | 280° |
| 2026-05-04 20:54 | 49.97589 | 7.01875 | 18217 ft | 419 kts | 280° |
| 2026-05-04 20:54 | 49.98241 | 6.97452 | 18661 ft | 422 kts | 280° |
| 2026-05-04 20:54 | 49.98680 | 6.94506 | 18977 ft | 424 kts | 280° |
| 2026-05-04 20:55 | 49.99192 | 6.90002 | 19434 ft | 423 kts | 272° |
| 2026-05-04 20:55 | 49.99205 | 6.85435 | 19908 ft | 423 kts | 265° |
| 2026-05-04 20:55 | 49.99067 | 6.80855 | 20412 ft | 425 kts | 264° |
| 2026-05-04 20:55 | 49.98908 | 6.76257 | 20905 ft | 427 kts | 263° |
| 2026-05-04 20:56 | 49.98752 | 6.71647 | 21408 ft | 429 kts | 263° |
| 2026-05-04 20:56 | 49.98602 | 6.66999 | 21917 ft | 431 kts | 264° |
| 2026-05-04 20:56 | 49.98457 | 6.62333 | 22439 ft | 434 kts | 264° |
| 2026-05-04 20:56 | 49.98190 | 6.57671 | 22947 ft | 433 kts | 257° |
| 2026-05-04 20:57 | 49.97430 | 6.53165 | 23427 ft | 431 kts | 247° |
| 2026-05-04 20:57 | 49.96283 | 6.48869 | 23816 ft | 431 kts | 243° |
| 2026-05-04 20:57 | 49.95063 | 6.44603 | 23949 ft | 436 kts | 243° |
| 2026-05-04 20:57 | 49.93817 | 6.40256 | 23972 ft | 443 kts | 243° |
| 2026-05-04 20:58 | 49.92584 | 6.35913 | 23992 ft | 445 kts | 244° |
| 2026-05-04 20:58 | 49.91319 | 6.31432 | 23977 ft | 449 kts | 245° |
| 2026-05-04 20:58 | 49.90052 | 6.26998 | 23971 ft | 450 kts | 243° |
| 2026-05-04 20:58 | 49.88772 | 6.22643 | 23964 ft | 450 kts | 245° |
| 2026-05-04 20:59 | 49.87535 | 6.18182 | 23962 ft | 450 kts | 245° |
| 2026-05-04 20:59 | 49.86254 | 6.13753 | 23960 ft | 449 kts | 241° |
| 2026-05-04 20:59 | 49.84610 | 6.09656 | 23957 ft | 448 kts | 234° |
| 2026-05-04 20:59 | 49.82804 | 6.05708 | 23963 ft | 448 kts | 233° |
| 2026-05-04 21:00 | 49.80991 | 6.01779 | 23955 ft | 448 kts | 233° |
| 2026-05-04 21:00 | 49.79180 | 5.97861 | 23958 ft | 447 kts | 233° |
| 2026-05-04 21:00 | 49.77374 | 5.93951 | 23959 ft | 447 kts | 233° |
| 2026-05-04 21:00 | 49.75570 | 5.90032 | 23958 ft | 447 kts | 234° |
| 2026-05-04 21:01 | 49.73981 | 5.85893 | 23976 ft | 449 kts | 243° |
| 2026-05-04 21:01 | 49.72825 | 5.81400 | 23969 ft | 451 kts | 248° |
| 2026-05-04 21:01 | 49.71777 | 5.76835 | 23962 ft | 451 kts | 249° |
| 2026-05-04 21:01 | 49.70733 | 5.72274 | 23956 ft | 451 kts | 249° |
| 2026-05-04 21:02 | 49.69683 | 5.67718 | 23960 ft | 451 kts | 249° |
| 2026-05-04 21:02 | 49.68621 | 5.63156 | 23953 ft | 451 kts | 249° |
| 2026-05-04 21:02 | 49.67559 | 5.58606 | 23949 ft | 451 kts | 248° |
| 2026-05-04 21:02 | 49.66491 | 5.54062 | 23947 ft | 451 kts | 248° |
| 2026-05-04 21:03 | 49.65423 | 5.49517 | 23966 ft | 451 kts | 248° |
| 2026-05-04 21:03 | 49.64351 | 5.44974 | 23955 ft | 451 kts | 248° |
| 2026-05-04 21:03 | 49.63270 | 5.40438 | 23950 ft | 450 kts | 248° |
| 2026-05-04 21:03 | 49.62212 | 5.35884 | 23960 ft | 452 kts | 250° |
| 2026-05-04 21:04 | 49.61223 | 5.31282 | 23957 ft | 452 kts | 250° |
| 2026-05-04 21:04 | 49.60252 | 5.26752 | 23955 ft | 452 kts | 250° |
| 2026-05-04 21:04 | 49.59402 | 5.22093 | 23950 ft | 453 kts | 257° |
| 2026-05-04 21:04 | 49.59095 | 5.17252 | 23954 ft | 456 kts | 267° |
| 2026-05-04 21:05 | 49.59135 | 5.12359 | 23959 ft | 457 kts | 269° |
| 2026-05-04 21:05 | 49.59176 | 5.09579 | 23959 ft | 457 kts | 269° |
| 2026-05-04 21:05 | 49.59242 | 5.04690 | 23956 ft | 456 kts | 269° |
| 2026-05-04 21:05 | 49.59293 | 4.99803 | 23958 ft | 456 kts | 269° |
| 2026-05-04 21:06 | 49.59338 | 4.94911 | 23961 ft | 456 kts | 269° |
| 2026-05-04 21:06 | 49.59376 | 4.89994 | 23970 ft | 457 kts | 269° |
| 2026-05-04 21:06 | 49.59412 | 4.85107 | 23965 ft | 457 kts | 269° |
| 2026-05-04 21:06 | 49.59447 | 4.80212 | 23963 ft | 457 kts | 269° |
| 2026-05-04 21:07 | 49.59474 | 4.75316 | 23959 ft | 457 kts | 269° |
| 2026-05-04 21:07 | 49.59499 | 4.70426 | 23959 ft | 457 kts | 269° |
| 2026-05-04 21:07 | 49.59524 | 4.65525 | 23959 ft | 457 kts | 269° |
| 2026-05-04 21:07 | 49.59547 | 4.60643 | 23960 ft | 457 kts | 269° |
| 2026-05-04 21:08 | 49.59567 | 4.55740 | 23960 ft | 457 kts | 269° |
| 2026-05-04 21:08 | 49.59585 | 4.50848 | 23960 ft | 457 kts | 269° |
| 2026-05-04 21:08 | 49.59601 | 4.45974 | 23962 ft | 455 kts | 269° |
| 2026-05-04 21:08 | 49.59615 | 4.41083 | 23959 ft | 456 kts | 269° |
| 2026-05-04 21:09 | 49.59624 | 4.36203 | 23961 ft | 456 kts | 269° |
| 2026-05-04 21:09 | 49.59635 | 4.31318 | 23961 ft | 456 kts | 269° |
| 2026-05-04 21:09 | 49.59644 | 4.26429 | 23961 ft | 456 kts | 269° |
| 2026-05-04 21:09 | 49.59654 | 4.21549 | 23961 ft | 455 kts | 269° |
| 2026-05-04 21:10 | 49.59679 | 4.16683 | 23958 ft | 453 kts | 270° |
| 2026-05-04 21:10 | 49.59713 | 4.11844 | 23955 ft | 450 kts | 268° |
| 2026-05-04 21:10 | 49.59279 | 4.07203 | 23625 ft | 436 kts | 253° |
| 2026-05-04 21:10 | 49.58126 | 4.02918 | 22932 ft | 431 kts | 240° |
| 2026-05-04 21:11 | 49.56526 | 3.99030 | 22183 ft | 428 kts | 236° |
| 2026-05-04 21:11 | 49.54862 | 3.95238 | 21408 ft | 427 kts | 236° |
| 2026-05-04 21:11 | 49.53215 | 3.91438 | 20661 ft | 426 kts | 236° |
| 2026-05-04 21:11 | 49.51596 | 3.87634 | 19950 ft | 424 kts | 237° |
| 2026-05-04 21:12 | 49.49998 | 3.83842 | 19264 ft | 421 kts | 237° |
| 2026-05-04 21:12 | 49.48414 | 3.80062 | 18586 ft | 420 kts | 238° |
| 2026-05-04 21:12 | 49.47164 | 3.76018 | 17849 ft | 419 kts | 251° |
| 2026-05-04 21:12 | 49.46380 | 3.71720 | 17170 ft | 417 kts | 255° |
| 2026-05-04 21:13 | 49.45676 | 3.67407 | 16547 ft | 414 kts | 255° |
| 2026-05-04 21:13 | 49.44976 | 3.63137 | 15919 ft | 411 kts | 255° |
| 2026-05-04 21:13 | 49.44273 | 3.58919 | 15480 ft | 404 kts | 255° |
| 2026-05-04 21:13 | 49.43565 | 3.54746 | 15150 ft | 403 kts | 255° |
| 2026-05-04 21:14 | 49.42854 | 3.50565 | 14957 ft | 406 kts | 255° |
| 2026-05-04 21:14 | 49.42135 | 3.46372 | 14930 ft | 406 kts | 254° |
| 2026-05-04 21:14 | 49.41249 | 3.42316 | 14932 ft | 390 kts | 248° |
| 2026-05-04 21:14 | 49.40234 | 3.38569 | 14930 ft | 375 kts | 246° |
| 2026-05-04 21:15 | 49.39222 | 3.34884 | 14942 ft | 374 kts | 247° |
| 2026-05-04 21:15 | 49.38218 | 3.31192 | 14947 ft | 374 kts | 247° |
| 2026-05-04 21:15 | 49.37221 | 3.27503 | 14953 ft | 374 kts | 247° |
| 2026-05-04 21:15 | 49.36226 | 3.23818 | 14955 ft | 374 kts | 247° |
| 2026-05-04 21:16 | 49.35230 | 3.20129 | 14954 ft | 374 kts | 247° |
| 2026-05-04 21:16 | 49.34233 | 3.16436 | 14949 ft | 374 kts | 247° |
| 2026-05-04 21:16 | 49.33258 | 3.12832 | 14819 ft | 367 kts | 247° |
| 2026-05-04 21:16 | 49.32281 | 3.09214 | 14094 ft | 369 kts | 247° |
| 2026-05-04 21:17 | 49.31297 | 3.05574 | 13411 ft | 369 kts | 247° |
| 2026-05-04 21:17 | 49.30317 | 3.01961 | 12830 ft | 365 kts | 247° |
| 2026-05-04 21:17 | 49.29347 | 2.98396 | 12301 ft | 360 kts | 247° |
| 2026-05-04 21:17 | 49.28390 | 2.94874 | 11789 ft | 356 kts | 247° |
| 2026-05-04 21:18 | 49.27445 | 2.91403 | 11288 ft | 352 kts | 247° |
| 2026-05-04 21:18 | 49.26509 | 2.87979 | 10995 ft | 343 kts | 246° |
| 2026-05-04 21:18 | 49.25609 | 2.84687 | 10921 ft | 327 kts | 246° |
| 2026-05-04 21:18 | 49.24754 | 2.81552 | 10911 ft | 311 kts | 246° |
| 2026-05-04 21:19 | 49.23943 | 2.78580 | 10912 ft | 298 kts | 246° |
| 2026-05-04 21:19 | 49.23141 | 2.75662 | 10924 ft | 297 kts | 246° |
| 2026-05-04 21:19 | 49.22338 | 2.72745 | 10936 ft | 297 kts | 246° |
| 2026-05-04 21:19 | 49.21535 | 2.69830 | 10950 ft | 297 kts | 246° |
| 2026-05-04 21:20 | 49.20732 | 2.66919 | 10953 ft | 297 kts | 246° |
| 2026-05-04 21:20 | 49.19926 | 2.64001 | 10955 ft | 299 kts | 246° |
| 2026-05-04 21:20 | 49.19117 | 2.61073 | 10953 ft | 299 kts | 246° |
| 2026-05-04 21:20 | 49.18331 | 2.58130 | 10953 ft | 299 kts | 251° |
| 2026-05-04 21:21 | 49.17979 | 2.55003 | 10956 ft | 300 kts | 266° |
| 2026-05-04 21:21 | 49.17915 | 2.51825 | 10964 ft | 300 kts | 268° |
| 2026-05-04 21:21 | 49.17872 | 2.48674 | 10747 ft | 294 kts | 268° |
| 2026-05-04 21:21 | 49.17818 | 2.45552 | 10361 ft | 293 kts | 268° |
| 2026-05-04 21:22 | 49.17760 | 2.42489 | 10125 ft | 283 kts | 268° |
| 2026-05-04 21:22 | 49.17697 | 2.39546 | 9979 ft | 272 kts | 268° |
| 2026-05-04 21:22 | 49.17638 | 2.36719 | 9810 ft | 261 kts | 268° |
| 2026-05-04 21:22 | 49.17578 | 2.33986 | 9541 ft | 255 kts | 268° |
| 2026-05-04 21:23 | 49.17501 | 2.31297 | 9184 ft | 252 kts | 262° |
| 2026-05-04 21:23 | 49.16967 | 2.28768 | 8795 ft | 250 kts | 244° |
| 2026-05-04 21:23 | 49.16188 | 2.26395 | 8428 ft | 249 kts | 242° |
| 2026-05-04 21:23 | 49.15387 | 2.24055 | 8065 ft | 248 kts | 242° |
| 2026-05-04 21:24 | 49.14586 | 2.21728 | 7707 ft | 247 kts | 242° |
| 2026-05-04 21:24 | 49.13790 | 2.19411 | 7366 ft | 246 kts | 242° |
| 2026-05-04 21:24 | 49.12998 | 2.17099 | 7028 ft | 245 kts | 242° |
| 2026-05-04 21:24 | 49.12207 | 2.14794 | 6704 ft | 244 kts | 240° |
| 2026-05-04 21:25 | 49.11111 | 2.12866 | 6352 ft | 241 kts | 212° |
| 2026-05-04 21:25 | 49.09576 | 2.11987 | 5980 ft | 236 kts | 183° |
| 2026-05-04 21:25 | 49.07993 | 2.12336 | 5599 ft | 231 kts | 156° |
| 2026-05-04 21:25 | 49.06539 | 2.13365 | 5271 ft | 230 kts | 151° |
| 2026-05-04 21:26 | 49.05116 | 2.14477 | 4943 ft | 229 kts | 151° |
| 2026-05-04 21:26 | 49.03705 | 2.15593 | 4629 ft | 228 kts | 150° |
| 2026-05-04 21:26 | 49.02500 | 2.17105 | 4327 ft | 225 kts | 126° |
| 2026-05-04 21:26 | 49.01619 | 2.19060 | 4060 ft | 223 kts | 120° |
| 2026-05-04 21:27 | 49.01041 | 2.21242 | 3971 ft | 223 kts | 101° |
| 2026-05-04 21:27 | 49.00893 | 2.23608 | 3999 ft | 230 kts | 90° |
| 2026-05-04 21:27 | 49.01014 | 2.26041 | 3891 ft | 235 kts | 80° |
| 2026-05-04 21:27 | 49.01175 | 2.28609 | 3628 ft | 254 kts | 83° |
| 2026-05-04 21:28 | 49.01334 | 2.31402 | 3214 ft | 275 kts | 83° |
| 2026-05-04 21:28 | 49.01496 | 2.34358 | 2752 ft | 283 kts | 83° |
| 2026-05-04 21:28 | 49.01630 | 2.37359 | 2397 ft | 285 kts | 85° |
| 2026-05-04 21:28 | 49.01827 | 2.40357 | 2003 ft | 283 kts | 83° |
| 2026-05-04 21:29 | 49.01957 | 2.43318 | 1617 ft | 278 kts | 82° |
| 2026-05-04 21:29 | 49.02245 | 2.46217 | 1260 ft | 275 kts | 80° |
| 2026-05-04 21:29 | 49.02514 | 2.49075 | 935 ft | 270 kts | 86° |
| 2026-05-04 21:29 | 49.02541 | 2.52027 | 721 ft | 301 kts | 88° |
| 2026-05-04 21:30 | 49.02668 | 2.55418 | 891 ft | 335 kts | 84° |
| 2026-05-04 21:30 | 49.02902 | 2.59051 | 1278 ft | 352 kts | 84° |
| 2026-05-04 21:30 | 49.03137 | 2.62791 | 1745 ft | 344 kts | 84° |
| 2026-05-04 21:30 | 49.03313 | 2.66230 | 2184 ft | 308 kts | 85° |
| 2026-05-04 21:31 | 49.03499 | 2.72046 | 2817 ft | 253 kts | 87° |
| 2026-05-04 21:31 | 49.03584 | 2.74741 | 3342 ft | 257 kts | 85° |
| 2026-05-04 21:31 | 49.04083 | 2.77352 | 3811 ft | 260 kts | 61° |
| 2026-05-04 21:32 | 49.05267 | 2.79424 | 3968 ft | 261 kts | 36° |
| 2026-05-04 21:32 | 49.06919 | 2.80516 | 3999 ft | 262 kts | 11° |
| 2026-05-04 21:32 | 49.08727 | 2.80399 | 4000 ft | 263 kts | 345° |
| 2026-05-04 21:32 | 49.10333 | 2.79083 | 3997 ft | 265 kts | 319° |
| 2026-05-04 21:33 | 49.11416 | 2.76822 | 3996 ft | 267 kts | 294° |
| 2026-05-04 21:33 | 49.11807 | 2.74050 | 4002 ft | 269 kts | 275° |
| 2026-05-04 21:33 | 49.11891 | 2.71202 | 4003 ft | 269 kts | 272° |
| 2026-05-04 21:33 | 49.11937 | 2.68347 | 4001 ft | 269 kts | 272° |
| 2026-05-04 21:34 | 49.11980 | 2.65510 | 3998 ft | 262 kts | 272° |
| 2026-05-04 21:34 | 49.12016 | 2.62805 | 3988 ft | 250 kts | 272° |
| 2026-05-04 21:34 | 49.12049 | 2.60159 | 3990 ft | 249 kts | 272° |
| 2026-05-04 21:34 | 49.12081 | 2.57508 | 4001 ft | 250 kts | 272° |
| 2026-05-04 21:35 | 49.12113 | 2.54863 | 4000 ft | 250 kts | 272° |
| 2026-05-04 21:35 | 49.12144 | 2.52213 | 3995 ft | 250 kts | 272° |
| 2026-05-04 21:35 | 49.12176 | 2.49561 | 3996 ft | 250 kts | 272° |
| 2026-05-04 21:35 | 49.12206 | 2.46938 | 3976 ft | 250 kts | 272° |
| 2026-05-04 21:36 | 49.12237 | 2.44288 | 3992 ft | 249 kts | 271° |
| 2026-05-04 21:36 | 49.12271 | 2.41646 | 3999 ft | 249 kts | 272° |
| 2026-05-04 21:36 | 49.12308 | 2.38991 | 3972 ft | 250 kts | 272° |
| 2026-05-04 21:36 | 49.12342 | 2.36338 | 3958 ft | 250 kts | 272° |
| 2026-05-04 21:37 | 49.12373 | 2.33691 | 3961 ft | 249 kts | 272° |
| 2026-05-04 21:37 | 49.12403 | 2.31040 | 3968 ft | 249 kts | 272° |
| 2026-05-04 21:37 | 49.12432 | 2.28426 | 3985 ft | 239 kts | 272° |
| 2026-05-04 21:37 | 49.12456 | 2.25962 | 3969 ft | 229 kts | 272° |
| 2026-05-04 21:38 | 49.12478 | 2.23537 | 3985 ft | 229 kts | 271° |
| 2026-05-04 21:38 | 49.12503 | 2.21114 | 4005 ft | 229 kts | 271° |
| 2026-05-04 21:38 | 49.12528 | 2.18664 | 4002 ft | 231 kts | 272° |
| 2026-05-04 21:38 | 49.12499 | 2.16212 | 3987 ft | 232 kts | 261° |
| 2026-05-04 21:39 | 49.11943 | 2.13909 | 3992 ft | 232 kts | 243° |
| 2026-05-04 21:39 | 49.11188 | 2.11725 | 4000 ft | 233 kts | 242° |
| 2026-05-04 21:39 | 49.10416 | 2.09553 | 4002 ft | 233 kts | 242° |
| 2026-05-04 21:39 | 49.09643 | 2.07385 | 4002 ft | 232 kts | 242° |
| 2026-05-04 21:40 | 49.08752 | 2.05342 | 3993 ft | 232 kts | 222° |
| 2026-05-04 21:40 | 49.07371 | 2.04146 | 3993 ft | 229 kts | 191° |
| 2026-05-04 21:40 | 49.05811 | 2.04156 | 3996 ft | 224 kts | 161° |
| 2026-05-04 21:40 | 49.04498 | 2.05346 | 3969 ft | 220 kts | 130° |
| 2026-05-04 21:41 | 49.03593 | 2.07189 | 3977 ft | 212 kts | 121° |
| 2026-05-04 21:41 | 49.03079 | 2.08389 | 4016 ft | 196 kts | 121° |
| 2026-05-04 21:41 | 49.02361 | 2.10091 | 4036 ft | 188 kts | 121° |
| 2026-05-04 21:41 | 49.01658 | 2.11765 | 4026 ft | 189 kts | 120° |
| 2026-05-04 21:42 | 49.00932 | 2.13460 | 3997 ft | 192 kts | 121° |
| 2026-05-04 21:42 | 49.00205 | 2.15183 | 3982 ft | 194 kts | 121° |
| 2026-05-04 21:42 | 48.99583 | 2.16991 | 3957 ft | 192 kts | 101° |
| 2026-05-04 21:42 | 48.99751 | 2.18959 | 3970 ft | 188 kts | 70° |
| 2026-05-04 21:43 | 49.00217 | 2.20820 | 3984 ft | 189 kts | 70° |
| 2026-05-04 21:43 | 49.00595 | 2.22745 | 3987 ft | 190 kts | 76° |
| 2026-05-04 21:43 | 49.00858 | 2.24747 | 3898 ft | 196 kts | 81° |
| 2026-05-04 21:43 | 49.01045 | 2.26857 | 3697 ft | 206 kts | 83° |
| 2026-05-04 21:44 | 49.01200 | 2.29066 | 3427 ft | 213 kts | 84° |
| 2026-05-04 21:44 | 49.01330 | 2.31336 | 3134 ft | 216 kts | 84° |
| 2026-05-04 21:44 | 49.01454 | 2.33603 | 2835 ft | 212 kts | 84° |
| 2026-05-04 21:44 | 49.01571 | 2.35786 | 2548 ft | 201 kts | 84° |
| 2026-05-04 21:45 | 49.01681 | 2.37832 | 2272 ft | 186 kts | 84° |
| 2026-05-04 21:45 | 49.01779 | 2.39681 | 2071 ft | 167 kts | 84° |
| 2026-05-04 21:45 | 49.02089 | 2.41270 | 1855 ft | 148 kts | 52° |
| 2026-05-04 21:45 | 49.02907 | 2.41912 | 1750 ft | 144 kts | 1° |
| 2026-05-04 21:46 | 49.03905 | 2.41248 | 2016 ft | 174 kts | 319° |
| 2026-05-04 21:46 | 49.04896 | 2.40157 | 2436 ft | 185 kts | 344° |
| 2026-05-04 21:46 | 49.06240 | 2.40241 | 2374 ft | 187 kts | 10° |
| 2026-05-04 21:46 | 49.07431 | 2.40290 | 2395 ft | 166 kts | 338° |
| 2026-05-04 21:47 | 49.08018 | 2.38962 | 2524 ft | 167 kts | 287° |
| 2026-05-04 21:47 | 49.08117 | 2.37041 | 2901 ft | 200 kts | 272° |
| 2026-05-04 21:47 | 49.08130 | 2.34803 | 3012 ft | 221 kts | 272° |
| 2026-05-04 21:47 | 49.08144 | 2.32408 | 2976 ft | 229 kts | 272° |
| 2026-05-04 21:48 | 49.08157 | 2.29974 | 2974 ft | 230 kts | 272° |
| 2026-05-04 21:48 | 49.08167 | 2.27535 | 2976 ft | 230 kts | 271° |
| 2026-05-04 21:48 | 49.08178 | 2.25105 | 2989 ft | 229 kts | 272° |
| 2026-05-04 21:48 | 49.08189 | 2.22684 | 3010 ft | 227 kts | 272° |
| 2026-05-04 21:49 | 49.08038 | 2.20259 | 3039 ft | 237 kts | 254° |
| 2026-05-04 21:49 | 49.07175 | 2.18086 | 2975 ft | 244 kts | 223° |
| 2026-05-04 21:49 | 49.05734 | 2.16782 | 2951 ft | 240 kts | 194° |
| 2026-05-04 21:49 | 49.04117 | 2.16679 | 2949 ft | 231 kts | 164° |
| 2026-05-04 21:50 | 49.02712 | 2.17755 | 2939 ft | 225 kts | 134° |
| 2026-05-04 21:50 | 49.01850 | 2.19660 | 2962 ft | 217 kts | 113° |
| 2026-05-04 21:50 | 49.01257 | 2.21728 | 2971 ft | 207 kts | 111° |
| 2026-05-04 21:50 | 49.00809 | 2.23744 | 2969 ft | 195 kts | 99° |
| 2026-05-04 21:51 | 49.00711 | 2.25736 | 3020 ft | 184 kts | 88° |
| 2026-05-04 21:51 | 49.00783 | 2.27636 | 2977 ft | 175 kts | 83° |
| 2026-05-04 21:51 | 49.00878 | 2.29429 | 2952 ft | 169 kts | 84° |
| 2026-05-04 21:51 | 49.00975 | 2.31226 | 2931 ft | 170 kts | 83° |
| 2026-05-04 21:52 | 49.01072 | 2.33022 | 2763 ft | 170 kts | 84° |
| 2026-05-04 21:52 | 49.01168 | 2.34808 | 2539 ft | 165 kts | 84° |
| 2026-05-04 21:52 | 49.01259 | 2.36490 | 2331 ft | 157 kts | 84° |
| 2026-05-04 21:52 | 49.01341 | 2.38036 | 2120 ft | 134 kts | 83° |
| 2026-05-04 21:53 | 49.01417 | 2.39432 | 1929 ft | 133 kts | 83° |
| 2026-05-04 21:53 | 49.01492 | 2.40829 | 1765 ft | 132 kts | 83° |
| 2026-05-04 21:53 | 49.01568 | 2.42225 | 1589 ft | 132 kts | 83° |
| 2026-05-04 21:53 | 49.01643 | 2.43618 | 1413 ft | 132 kts | 84° |
| 2026-05-04 21:54 | 49.01718 | 2.45013 | 1229 ft | 132 kts | 84° |
| 2026-05-04 21:54 | 49.01793 | 2.46403 | 1047 ft | 132 kts | 84° |
| 2026-05-04 21:54 | 49.01867 | 2.47802 | 873 ft | 133 kts | 83° |
| 2026-05-04 21:54 | 49.01940 | 2.49210 | 697 ft | 133 kts | 84° |
| 2026-05-04 21:55 | 49.02018 | 2.50611 | 512 ft | 133 kts | 83° |
| 2026-05-04 21:55 | 49.02094 | 2.52003 | 361 ft | 127 kts | 84° |
| 2026-05-04 21:55 | 49.02165 | 2.53138 | 364 ft | 84 kts | 80° |